METAR AND TAF INFORMATION
METAR FOR GABS
ADDS - METARS form results

(0955 UTC 24 May 2019)
Data provider http://aviationweather.gov/metar/data/
 
METAR text: GABS 240930Z 21006KT 150V250 CAVOK 29/20 Q1015 NOSIG
Conditions at: GABS (BAMAKO/SENOU (MI, ML) observed 0930 UTC 24 May 2019
Temperature: 29.0°C (84°F)
Dewpoint: 20.0°C (68°F) [RH = 58%]
Pressure (altimeter): 29.97 inches Hg (1015.0 mb)
Winds: from the SSW (210 degrees) at 7 MPH (6 knots; 3.1 m/s)
Visibility: 6 or more miles (10+ km)
Ceiling: ceiling and visibility are OK
Clouds: unknown
Weather: no significant weather observed at this time

METAR text: GABS 240900Z 20005KT 160V240 CAVOK 28/21 Q1015 NOSIG
Conditions at: GABS (BAMAKO/SENOU (MI, ML) observed 0900 UTC 24 May 2019
Temperature: 28.0°C (82°F)
Dewpoint: 21.0°C (70°F) [RH = 66%]
Pressure (altimeter): 29.97 inches Hg (1015.0 mb)
Winds: from the SSW (200 degrees) at 6 MPH (5 knots; 2.6 m/s)
Visibility: 6 or more miles (10+ km)
Ceiling: ceiling and visibility are OK
Clouds: unknown
Weather: no significant weather observed at this time

Forecast for: GABS (BAMAKO/SENOU (MI, ML)
Text: TAF GABS 240500Z 2406/2512 24008KT 9999 FEW030
Forecast period: 0600 UTC 24 May 2019 to 1200 UTC 25 May 2019
Forecast type: FROM: standard forecast or significant change
Winds: from the WSW (240 degrees) at 9 MPH (8 knots; 4.1 m/s)
Visibility: 6 or more miles 10+ km)
Ceiling: at least 12,000 feet AGL
Clouds: few clouds at 3000 feet AGL
Weather: no significant weather forecast for this period
Text: PROB40
Forecast period: 1200 to 1800 UTC 24 May 2019
Forecast type: TEMPORARY: The following changes expected for less than half the time period
Winds: from the E (80 degrees) at 17 MPH (15 knots; 7.7 m/s)
gusting to 34 MPH (30 knots; 15.4 m/s)
Visibility: 2.49 miles (4.01 km)
Ceiling: 3000 feet AGL
Clouds: broken clouds at 3000 feet AGL
scattered clouds at 3500 feet AGL
Weather: TSRA  (rain associated with thunderstorm(s))

 AIRPORT MAP

 RUNWAY INFORMATION
Runway 06 Runway length 8879 ft Runway width 148 ft
Runway elevation 1187 ft Runway displaced threshold 0 ft Runway heading 57
Runway 24 Runway length 8879 ft Runway width 148 ft
Runway elevation 1244 ft Runway displaced threshold 0 ft Runway heading 237

 AIRPORT FREQUENCIES
Type A/G Name A/G Frequency 667.3 MHZ
Type ACC Name ACC Frequency 119.1 MHZ
Type TWR Name TWR Frequency 118.3 MHZ

 AIRPORT NEAR NAVIGATION AIDS
Type VOR-DME Name Bamako/Senou Frequency 113700 KHZ
Type NDB Name Bamako/Senou Frequency 301 KHZ



Powered by Virtual Airlines Manager [v2.6.2]